Bordeaux-Mérignac Airport

LFBD · Gironde, Nouvelle-Aquitaine, 法国

罗盘
风向 的 Bordeaux-Mérignac Airport 5/23
风: 0 kt, 0 beaufort


改变
0 1.000 2.000 3.000 4.000 5.000
BKN 2.700 ft
METAR LFBD 040200Z AUTO 00000KT 6000 BKN027 01/01 Q1009 TEMPO 0800 BCFG

METAR Bordeaux-Mérignac Airport - LFBD/BOD

Bordeaux-Mérignac Airport是,法国中的大型机场。 该机场有2条跑道: 5/23 和 11/29. 该领域的国际民航组织标志是LFBD 它的国际航空运输协会代码是BOD.

这份报告是针对2022年12月4日 03:00, 当地时间在Bordeaux-Mérignac Airport进行的。

机场观察

可变方向的风很小或没有风。

可见度为6 km。

有碎云在2.700 ft的高度。 破损或更高的上限为2.700 ft。

温度和风寒是1 °C。 露点为1 °C,相对湿度为100%。 海平面上的气压为1009 hPa (QNH)。

发展趋势

  • 暂时的

    可变方向的风很小或没有。 可见性变为800 m。 重大天气:的补丁 多雾路段。

白天

今天,太阳从08:23升起,在17:22降落。 这适用于Bordeaux-Mérignac Airport,世界夏令时可能有所不同。 当地时间与世界标准时间之间的时差为+1 小时。 当前,没有夏令时有效。

公司介绍

在这个机场,你可以找到飞行俱乐部。 本场上唯一已知的公司是CAPAM。

体会

到Vliegles.nl去找飞行课程,跳伞和其他飞行体验。 浏览页面,了解Bordeaux-Mérignac Airport附近所有可用的活动。 你也可以使用搜索功能来寻找你所在地附近的特定飞行课程、跳伞或其他飞行体验。

跑道

Id 标题 侧风 逆风 侧风 %
5/23 046°-226°
11/29 107°-287°

逆风成分最大的方向会被突出显示,并用于横风计算。 这并不一定意味着这个方向在使用。

乌云

2.700 ft BKN 碎云

温度 & 天气

温度 1 °C
露点 1 °C
相对湿度 100%
Kp-index 2 (0-9)

白天

日出
08:23 (5:02)
中午
12:53
日落
17:22

小工具

你想在你的网站上有一个关于Bordeaux-Mérignac Airport的当前航空天气(METAR)的小部件吗?

显示HTML代码

我们和第三方通过cookies跟踪您在我们网站上的互联网行为。如果你继续,我们认为你同意我们的饼干政策